APL Norway — A8NC4 — position and weather

sailwx.info

Track history (hours):
 
Tides and Currents Weather Stations Pressure Air Temp Water Temp Dewpoint Dewpoint Depression Visibility Wind Speed Wind Dir Waves Ship Positions

APL Norway

Last reported at 2015-Jul-17 23:29 UTC. Time now 2015-Jul-30 12:05 UTC.
Position N 26°40' W 115°23'.
Warning: this ship's position is 12 days out of date.

Length 295 m; draft 11.9 m.

Type: Cargo ship. MMSI: 636013456.

Date/timePositionNaut miles runAvg speedWind from/ knotsBaromVisibWave heightAir tempDewpointWater temp
2015-Jul-17 23:29N 26°40' W 115°23'1617.5
2015-Jul-17 22:33N 26°49' W 115°38'1717.4
2015-Jul-17 21:33N 26°57' W 115°55'1717.0
2015-Jul-17 20:33N 27°05' W 116°12'17617.0
2015-Jul-17 10:12N 28°33' W 119°05'3617.3
2015-Jul-17 08:06N 28°51' W 119°40'1117.2
2015-Jul-17 07:29N 28°56' W 119°51'1817.5
2015-Jul-17 06:29N 29°05' W 120°08'1617.5
2015-Jul-17 05:32N 29°13' W 120°25'2017.5
2015-Jul-17 04:24N 29°22' W 120°45'1517.6
2015-Jul-17 03:33N 29°30' W 120°60'1818.4
2015-Jul-17 02:33N 29°39' W 121°18'2019.5
2015-Jul-17 01:33N 29°49' W 121°37'1919.5
2015-Jul-17 00:34N 29°58' W 121°57'1919.4
2015-Jul-16 23:33N 30°09' W 122°16'2019.5
2015-Jul-16 22:31N 30°20' W 122°36'1819.3
2015-Jul-16 21:34N 30°30' W 122°54'  
Track history (hours):
 
Tides and Currents Weather Stations Pressure Air Temp Water Temp Dewpoint Dewpoint Depression Visibility Wind Speed Wind Dir Waves Ship Positions

APL Norway

Last reported at 2015-Jul-17 23:29 UTC. Time now 2015-Jul-30 12:05 UTC.
Position N 26°40' W 115°23'.
Warning: this ship's position is 12 days out of date.

Length 295 m; draft 11.9 m.

Type: Cargo ship. MMSI: 636013456.

Date/timePositionNaut miles runAvg speedWind from/ knotsBaromVisibWave heightAir tempDewpointWater temp
2015-Jul-17 23:29N 26°40' W 115°23'1617.5
2015-Jul-17 22:33N 26°49' W 115°38'1717.4
2015-Jul-17 21:33N 26°57' W 115°55'1717.0
2015-Jul-17 20:33N 27°05' W 116°12'17617.0
2015-Jul-17 10:12N 28°33' W 119°05'3617.3
2015-Jul-17 08:06N 28°51' W 119°40'1117.2
2015-Jul-17 07:29N 28°56' W 119°51'1817.5
2015-Jul-17 06:29N 29°05' W 120°08'1617.5
2015-Jul-17 05:32N 29°13' W 120°25'2017.5
2015-Jul-17 04:24N 29°22' W 120°45'1517.6
2015-Jul-17 03:33N 29°30' W 120°60'1818.4
2015-Jul-17 02:33N 29°39' W 121°18'2019.5
2015-Jul-17 01:33N 29°49' W 121°37'1919.5
2015-Jul-17 00:34N 29°58' W 121°57'1919.4
2015-Jul-16 23:33N 30°09' W 122°16'2019.5
2015-Jul-16 22:31N 30°20' W 122°36'1819.3
2015-Jul-16 21:34N 30°30' W 122°54'  

Dump ship's entire track history